Time;durP1;ratioP1;P1;durP2;ratioP2;P2;SDS_P1;SDS_P2;PMS_P1;PMS_P2;Temp;Humidity;BMP_temperature;BMP_pressure;BME280_temperature;BME280_humidity;BME280_pressure;Samples;Min_cycle;Max_cycle;Signal;HPM_P1;HPM_P2
2021/12/18 00:00:19;;;;;;;16.47;12.20;;;7.90;99.90;;;;;;5005365;28;20927;-52
2021/12/18 00:02:44;;;;;;;15.70;11.63;;;8.00;99.90;;;;;;5006130;28;20177;-54
2021/12/18 00:05:10;;;;;;;15.23;11.73;;;8.10;99.90;;;;;;5003603;28;20448;-55
2021/12/18 00:07:36;;;;;;;17.33;12.17;;;8.10;99.90;;;;;;5006175;28;20216;-54
2021/12/18 00:10:04;;;;;;;17.50;13.00;;;8.10;99.90;;;;;;5005004;28;20260;-55
2021/12/18 00:12:30;;;;;;;19.30;12.70;;;8.00;99.90;;;;;;5006085;28;20193;-54
2021/12/18 00:14:56;;;;;;;17.80;13.20;;;8.10;99.90;;;;;;5003956;28;20570;-52
2021/12/18 00:17:21;;;;;;;24.50;13.50;;;8.10;99.90;;;;;;5004456;28;20248;-51
2021/12/18 00:19:47;;;;;;;20.87;14.67;;;8.00;99.90;;;;;;5004485;28;20212;-52
2021/12/18 00:22:13;;;;;;;19.53;13.30;;;7.90;99.90;;;;;;5003086;28;20721;-52
2021/12/18 00:24:39;;;;;;;15.83;12.83;;;7.70;99.90;;;;;;5005819;28;20178;-54
2021/12/18 00:27:04;;;;;;;21.20;15.60;;;7.70;99.90;;;;;;5000372;28;20709;-51
2021/12/18 00:29:30;;;;;;;20.40;14.03;;;7.80;99.90;;;;;;5004934;28;20223;-51
2021/12/18 00:31:57;;;;;;;20.10;14.60;;;7.70;99.90;;;;;;5003956;28;20490;-52
2021/12/18 00:34:23;;;;;;;20.33;13.40;;;7.70;99.90;;;;;;5003873;28;20197;-51
2021/12/18 00:36:48;;;;;;;17.57;13.27;;;7.70;99.90;;;;;;5005825;28;20478;-52
2021/12/18 00:39:14;;;;;;;20.67;13.27;;;7.70;99.90;;;;;;5004075;28;20952;-48
2021/12/18 00:42:07;;;;;;;18.17;14.70;;;7.50;99.90;;;;;;5004992;28;20229;-50
2021/12/18 00:44:32;;;;;;;21.80;14.77;;;7.50;99.90;;;;;;5005234;28;20582;-53
2021/12/18 00:46:58;;;;;;;19.57;13.97;;;7.50;99.90;;;;;;5006008;28;20546;-52
2021/12/18 00:49:24;;;;;;;17.97;13.53;;;7.50;99.90;;;;;;5003929;28;20212;-53
2021/12/18 00:51:50;;;;;;;21.27;15.17;;;7.50;99.90;;;;;;5003406;28;20200;-53
2021/12/18 00:54:16;;;;;;;18.60;13.17;;;7.40;99.90;;;;;;5003966;28;20444;-53
2021/12/18 00:56:42;;;;;;;24.40;15.30;;;7.50;99.90;;;;;;5002541;28;20335;-52
2021/12/18 00:59:07;;;;;;;19.17;14.27;;;7.50;99.90;;;;;;5004929;28;20534;-50
2021/12/18 01:01:33;;;;;;;20.07;14.00;;;7.40;99.90;;;;;;5002555;28;20502;-54
2021/12/18 01:04:00;;;;;;;19.30;14.33;;;7.40;99.90;;;;;;5003427;28;20691;-53
2021/12/18 01:06:26;;;;;;;19.60;13.60;;;7.40;99.90;;;;;;5003855;28;20209;-51
2021/12/18 01:08:55;;;;;;;19.93;14.90;;;7.40;99.90;;;;;;5002811;28;20486;-51
2021/12/18 01:11:35;;;;;;;19.73;14.60;;;7.40;99.90;;;;;;5000632;28;20992;-53
2021/12/18 01:14:38;;;;;;;21.40;14.90;;;7.40;99.90;;;;;;5002184;28;20446;-51
2021/12/18 01:25:03;;;;;;;23.97;14.50;;;7.20;99.90;;;;;;5002295;28;20443;-51
2021/12/18 01:27:29;;;;;;;27.00;17.40;;;7.10;99.90;;;;;;5003444;28;20590;-53
2021/12/18 01:29:55;;;;;;;22.57;15.60;;;7.10;99.90;;;;;;5000150;28;20551;-51
2021/12/18 01:32:20;;;;;;;21.80;14.80;;;7.10;99.90;;;;;;5002468;28;20200;-50
2021/12/18 01:34:46;;;;;;;19.93;14.83;;;7.00;99.90;;;;;;5001217;28;20713;-53
2021/12/18 01:37:12;;;;;;;22.47;15.60;;;7.00;99.90;;;;;;4998432;28;20647;-51
2021/12/18 01:39:38;;;;;;;24.43;15.63;;;7.00;99.90;;;;;;5000882;28;21150;-52
2021/12/18 01:52:53;;;;;;;23.47;14.83;;;7.20;99.90;;;;;;5004731;28;20462;-52
2021/12/18 01:55:48;;;;;;;22.93;14.70;;;7.20;99.90;;;;;;5002489;28;20800;-49
2021/12/18 01:58:14;;;;;;;25.03;14.90;;;6.90;99.90;;;;;;5000161;28;20503;-50
2021/12/18 02:00:43;;;;;;;23.70;16.23;;;7.00;99.90;;;;;;5003124;28;20950;-50
2021/12/18 02:03:09;;;;;;;21.63;14.53;;;7.00;99.90;;;;;;5002577;28;20193;-53
2021/12/18 02:05:37;;;;;;;20.60;15.80;;;7.10;99.90;;;;;;5003036;28;20566;-50
2021/12/18 02:08:04;;;;;;;22.73;15.50;;;7.00;99.90;;;;;;5002189;28;20460;-53
2021/12/18 02:10:32;;;;;;;23.80;16.33;;;7.00;99.90;;;;;;5000894;28;20553;-50
2021/12/18 02:21:24;;;;;;;22.40;14.90;;;6.90;99.90;;;;;;5002208;28;20415;-49
2021/12/18 02:23:50;;;;;;;22.03;15.30;;;6.90;99.90;;;;;;5002553;28;20840;-53
2021/12/18 02:26:17;;;;;;;24.40;15.43;;;6.90;99.90;;;;;;5001884;28;20443;-53
2021/12/18 02:28:46;;;;;;;22.90;14.90;;;6.90;99.90;;;;;;5002832;28;20462;-51
2021/12/18 02:31:12;;;;;;;24.70;17.13;;;6.90;99.90;;;;;;4999511;28;20458;-54
2021/12/18 02:33:38;;;;;;;21.60;15.23;;;7.00;99.90;;;;;;5000895;28;20440;-52
2021/12/18 02:36:06;;;;;;;20.97;15.27;;;6.90;99.90;;;;;;5001063;28;20478;-54
2021/12/18 02:41:33;;;;;;;27.50;16.00;;;7.00;99.90;;;;;;5004912;28;20436;-53
2021/12/18 02:44:01;;;;;;;24.27;14.67;;;7.10;99.90;;;;;;5005691;28;20450;-51
2021/12/18 02:46:27;;;;;;;23.33;16.17;;;7.00;99.90;;;;;;5004459;28;20521;-49
2021/12/18 02:48:55;;;;;;;22.07;14.53;;;7.20;99.90;;;;;;5002600;28;20542;-51
2021/12/18 02:51:22;;;;;;;26.97;17.30;;;7.20;99.90;;;;;;5003296;28;20455;-53
2021/12/18 02:53:51;;;;;;;24.60;15.70;;;7.10;99.90;;;;;;5006821;28;20442;-51
2021/12/18 02:56:23;;;;;;;23.03;15.57;;;7.20;99.90;;;;;;5005928;28;20510;-53
2021/12/18 02:58:50;;;;;;;24.97;15.60;;;7.10;99.90;;;;;;5007201;28;20420;-52
2021/12/18 03:01:19;;;;;;;24.20;15.00;;;7.20;99.90;;;;;;5004447;28;20967;-48
2021/12/18 03:03:46;;;;;;;22.50;15.57;;;7.10;99.90;;;;;;5006552;28;20436;-48
2021/12/18 03:06:26;;;;;;;21.77;14.37;;;7.10;99.90;;;;;;5005258;28;20428;-52
2021/12/18 03:18:55;;;;;;;21.90;15.00;;;7.20;99.90;;;;;;5006305;28;20431;-50
2021/12/18 03:25:28;;;;;;;22.87;14.60;;;7.00;99.90;;;;;;5004549;28;20431;-50
2021/12/18 03:27:54;;;;;;;27.60;16.30;;;7.00;99.90;;;;;;5019214;28;20473;-52
2021/12/18 03:30:21;;;;;;;25.27;15.33;;;7.00;99.90;;;;;;5004106;28;20455;-52
2021/12/18 03:32:47;;;;;;;22.30;14.20;;;7.00;99.90;;;;;;5006573;28;21097;-51
2021/12/18 03:35:15;;;;;;;24.97;17.00;;;7.00;99.90;;;;;;5005026;28;20486;-50
2021/12/18 03:37:41;;;;;;;24.93;14.90;;;6.90;99.90;;;;;;5003169;28;20464;-51
2021/12/18 03:40:10;;;;;;;21.67;15.47;;;6.90;99.90;;;;;;5004615;28;20428;-52
2021/12/18 03:42:37;;;;;;;24.67;16.40;;;6.80;99.90;;;;;;5003829;28;20452;-55
2021/12/18 03:45:05;;;;;;;27.13;15.60;;;6.90;99.90;;;;;;5004987;28;20440;-51
2021/12/18 03:47:30;;;;;;;24.90;17.10;;;6.60;99.90;;;;;;5005067;28;20468;-53
2021/12/18 03:49:56;;;;;;;24.97;15.50;;;6.60;99.90;;;;;;5003662;28;20470;-52
2021/12/18 03:52:22;;;;;;;24.30;15.40;;;6.60;99.90;;;;;;4999801;28;22611;-53
2021/12/18 03:54:48;;;;;;;25.83;15.20;;;6.70;99.90;;;;;;5002020;28;20197;-52
2021/12/18 03:57:13;;;;;;;23.27;16.40;;;6.70;99.90;;;;;;5005642;28;20578;-51
2021/12/18 03:59:39;;;;;;;26.00;16.13;;;6.60;99.90;;;;;;5002169;28;20212;-53
2021/12/18 04:02:05;;;;;;;21.50;15.40;;;6.50;99.90;;;;;;5002269;28;20209;-48
2021/12/18 04:04:30;;;;;;;23.17;14.50;;;6.60;99.90;;;;;;5005168;28;20189;-51
2021/12/18 04:06:56;;;;;;;24.17;16.23;;;6.50;99.90;;;;;;5003984;28;20653;-53
2021/12/18 04:09:22;;;;;;;25.27;14.43;;;6.60;99.90;;;;;;5005668;28;20647;-52
2021/12/18 04:11:47;;;;;;;24.33;15.27;;;6.60;99.90;;;;;;5005440;28;20275;-52
2021/12/18 04:14:17;;;;;;;21.83;14.67;;;6.70;99.90;;;;;;5004362;28;20643;-52
2021/12/18 04:16:43;;;;;;;21.50;14.20;;;6.70;99.90;;;;;;5002618;28;20648;-49
2021/12/18 04:19:09;;;;;;;25.77;15.40;;;6.50;99.90;;;;;;5003097;28;20485;-51
2021/12/18 04:21:35;;;;;;;23.43;15.17;;;6.70;99.90;;;;;;5005147;28;20442;-49
2021/12/18 04:24:03;;;;;;;23.80;15.60;;;6.70;99.90;;;;;;5002703;28;20444;-54
2021/12/18 04:26:29;;;;;;;23.00;14.40;;;6.70;99.90;;;;;;5003373;28;20495;-52
2021/12/18 04:28:55;;;;;;;25.63;15.50;;;6.60;99.90;;;;;;5004147;28;20468;-52
2021/12/18 04:31:20;;;;;;;27.30;15.77;;;6.60;99.90;;;;;;5003384;28;21059;-52
2021/12/18 04:33:46;;;;;;;21.50;14.33;;;6.60;99.90;;;;;;5004926;28;20203;-53
2021/12/18 04:36:11;;;;;;;23.03;14.27;;;6.60;99.90;;;;;;5002188;28;21279;-52
2021/12/18 04:38:37;;;;;;;24.70;16.03;;;6.50;99.90;;;;;;5000269;28;20204;-50
2021/12/18 04:41:04;;;;;;;22.00;13.97;;;6.60;99.90;;;;;;4999777;28;20244;-53
2021/12/18 04:43:30;;;;;;;28.30;16.00;;;6.50;99.90;;;;;;5017151;23;20295;-58
2021/12/18 04:45:56;;;;;;;23.00;14.90;;;6.60;99.90;;;;;;4996209;28;20494;-60
2021/12/18 04:48:22;;;;;;;23.30;16.00;;;6.60;99.90;;;;;;5002155;28;20717;-58
2021/12/18 04:50:47;;;;;;;21.70;14.63;;;6.60;99.90;;;;;;5002162;28;20196;-57
2021/12/18 04:53:13;;;;;;;26.03;15.23;;;6.70;99.90;;;;;;5002956;28;20221;-58
2021/12/18 04:55:39;;;;;;;23.17;15.40;;;6.60;99.90;;;;;;5004979;28;20676;-58
2021/12/18 04:58:04;;;;;;;21.33;14.80;;;6.50;99.90;;;;;;5004976;28;20193;-58
2021/12/18 05:00:38;;;;;;;25.23;14.07;;;6.50;99.90;;;;;;5002023;28;20201;-58
2021/12/18 05:03:07;;;;;;;20.03;13.57;;;6.60;99.90;;;;;;5003075;28;20558;-57
2021/12/18 05:05:33;;;;;;;25.70;14.23;;;6.70;99.90;;;;;;4995701;28;20450;-58
2021/12/18 05:07:59;;;;;;;24.97;15.20;;;6.80;99.90;;;;;;5001406;28;20448;-58
2021/12/18 05:10:25;;;;;;;24.10;14.70;;;6.70;99.90;;;;;;5001609;28;20451;-57
2021/12/18 05:12:50;;;;;;;22.67;15.23;;;6.70;99.90;;;;;;5002927;28;20498;-58
2021/12/18 05:15:16;;;;;;;20.70;14.00;;;6.70;99.90;;;;;;5002038;28;20236;-58
2021/12/18 05:17:42;;;;;;;23.17;14.43;;;6.80;99.90;;;;;;5003312;28;20216;-57
2021/12/18 05:20:08;;;;;;;22.20;14.77;;;6.70;99.90;;;;;;5003305;28;20197;-56
2021/12/18 05:22:34;;;;;;;19.87;13.50;;;6.70;99.90;;;;;;5003209;28;20928;-57
2021/12/18 05:24:59;;;;;;;21.97;13.93;;;6.80;99.90;;;;;;5001616;28;20437;-58
2021/12/18 05:27:25;;;;;;;22.57;14.70;;;6.60;99.90;;;;;;5003569;28;20185;-57
2021/12/18 05:29:51;;;;;;;24.00;13.80;;;6.70;99.90;;;;;;5002132;28;20189;-58
2021/12/18 05:32:16;;;;;;;21.80;13.40;;;6.60;99.90;;;;;;5001315;28;20192;-58
2021/12/18 05:34:42;;;;;;;23.10;14.37;;;6.80;99.90;;;;;;5002852;28;20204;-58
2021/12/18 05:37:32;;;;;;;22.00;14.20;;;6.70;99.90;;;;;;5002619;28;20217;-58
2021/12/18 05:39:58;;;;;;;21.07;13.73;;;6.80;99.90;;;;;;5002261;28;20223;-58
2021/12/18 05:42:25;;;;;;;22.00;12.80;;;6.80;99.90;;;;;;5001349;28;20475;-57
2021/12/18 05:44:50;;;;;;;22.43;14.27;;;6.90;99.90;;;;;;5001551;28;21111;-58
2021/12/18 05:47:16;;;;;;;21.03;13.73;;;6.90;99.90;;;;;;5002095;28;20447;-57
2021/12/18 05:49:41;;;;;;;20.47;13.27;;;6.90;99.90;;;;;;5003212;28;20268;-58
2021/12/18 05:52:08;;;;;;;35.10;14.63;;;6.90;99.90;;;;;;5001124;28;20205;-57
2021/12/18 05:54:35;;;;;;;24.40;13.63;;;6.60;99.90;;;;;;5002550;28;20594;-57
2021/12/18 05:57:06;;;;;;;22.10;14.33;;;6.60;99.90;;;;;;5001825;28;20476;-57
2021/12/18 05:59:33;;;;;;;22.00;15.10;;;6.70;99.90;;;;;;5003197;28;20459;-57
2021/12/18 06:01:59;;;;;;;20.07;11.63;;;6.80;99.90;;;;;;5001914;28;20468;-58
2021/12/18 06:04:24;;;;;;;24.00;12.80;;;6.90;99.90;;;;;;5003026;28;22258;-56
2021/12/18 06:06:50;;;;;;;23.30;14.37;;;6.90;99.90;;;;;;5004000;28;20444;-57
2021/12/18 06:09:16;;;;;;;22.17;14.00;;;6.80;99.90;;;;;;5002243;28;20188;-57
2021/12/18 06:11:42;;;;;;;21.77;12.80;;;6.60;99.90;;;;;;5002118;28;20243;-58
2021/12/18 06:14:09;;;;;;;24.50;13.17;;;6.70;99.90;;;;;;4999848;28;20597;-57
2021/12/18 06:16:35;;;;;;;19.37;12.50;;;6.50;99.90;;;;;;4999751;28;20472;-57
2021/12/18 06:19:01;;;;;;;25.40;12.77;;;6.60;99.90;;;;;;4998731;28;20440;-58
2021/12/18 06:21:27;;;;;;;22.43;13.87;;;6.50;99.90;;;;;;4995023;28;21978;-61
2021/12/18 06:23:54;;;;;;;25.80;14.33;;;6.50;99.90;;;;;;5002934;28;20451;-59
2021/12/18 06:26:21;;;;;;;22.80;13.00;;;6.70;99.90;;;;;;5000604;28;20487;-57
2021/12/18 06:28:47;;;;;;;22.23;13.57;;;6.70;99.90;;;;;;5001947;28;20440;-58
2021/12/18 06:31:13;;;;;;;20.70;12.67;;;6.60;99.90;;;;;;5001396;28;20493;-58
2021/12/18 06:33:39;;;;;;;24.80;14.23;;;6.80;99.90;;;;;;5001512;28;20467;-59
2021/12/18 06:36:05;;;;;;;21.83;13.10;;;6.70;99.90;;;;;;5001732;28;20216;-60
2021/12/18 06:38:30;;;;;;;23.07;12.93;;;6.80;99.90;;;;;;5001777;28;20224;-59
2021/12/18 06:40:56;;;;;;;20.83;13.53;;;6.80;99.90;;;;;;5002225;28;20458;-59
2021/12/18 06:43:22;;;;;;;19.90;12.73;;;6.70;99.90;;;;;;4999213;28;20688;-57
2021/12/18 06:45:47;;;;;;;21.47;13.93;;;6.80;99.90;;;;;;5000901;28;20224;-57
2021/12/18 06:48:13;;;;;;;23.00;13.70;;;6.80;99.90;;;;;;5000291;28;20271;-58
2021/12/18 06:50:39;;;;;;;20.17;12.70;;;6.90;99.90;;;;;;5000122;28;20227;-57
2021/12/18 06:53:05;;;;;;;21.10;13.37;;;6.90;99.90;;;;;;4998506;28;20275;-59
2021/12/18 06:55:31;;;;;;;24.63;14.97;;;6.80;99.90;;;;;;5001613;28;20455;-59
2021/12/18 06:57:57;;;;;;;23.00;13.57;;;6.90;99.90;;;;;;4999507;28;20448;-60
2021/12/18 07:00:24;;;;;;;19.17;13.07;;;6.90;99.90;;;;;;5001292;28;20440;-60
2021/12/18 07:02:50;;;;;;;24.93;13.43;;;7.00;99.90;;;;;;5001053;28;20255;-59
2021/12/18 07:05:17;;;;;;;23.10;14.93;;;7.10;99.90;;;;;;5000300;28;20558;-60
2021/12/18 07:07:43;;;;;;;19.27;12.37;;;6.90;99.90;;;;;;4998981;28;20973;-60
2021/12/18 07:10:11;;;;;;;20.97;12.53;;;6.90;99.90;;;;;;4998070;28;20451;-57
2021/12/18 07:12:36;;;;;;;22.13;13.27;;;6.80;99.90;;;;;;5000849;28;20212;-59
2021/12/18 07:15:04;;;;;;;21.40;12.23;;;6.70;99.90;;;;;;4997553;28;20444;-56
2021/12/18 07:17:30;;;;;;;19.70;12.20;;;6.90;99.90;;;;;;5001158;28;20298;-58
2021/12/18 07:19:55;;;;;;;22.37;12.77;;;6.80;99.90;;;;;;4997986;28;21131;-56
2021/12/18 07:22:21;;;;;;;22.63;12.83;;;6.80;99.90;;;;;;4999091;28;20198;-59
2021/12/18 07:24:46;;;;;;;24.83;13.00;;;6.70;99.90;;;;;;4996281;28;20185;-59
2021/12/18 07:27:12;;;;;;;20.13;11.60;;;6.80;99.90;;;;;;4997474;28;20240;-60
2021/12/18 07:29:38;;;;;;;19.77;12.13;;;6.90;99.90;;;;;;5002236;28;20203;-60
2021/12/18 07:32:03;;;;;;;19.90;12.20;;;6.80;99.90;;;;;;5002406;28;20193;-58
2021/12/18 07:34:29;;;;;;;19.80;12.53;;;6.90;99.90;;;;;;5003392;28;20220;-59
2021/12/18 07:36:55;;;;;;;19.20;12.07;;;6.80;99.90;;;;;;5005156;28;20221;-59
2021/12/18 07:39:20;;;;;;;21.23;12.60;;;6.60;99.90;;;;;;5002810;28;20257;-60
2021/12/18 07:41:46;;;;;;;27.30;13.40;;;6.50;99.90;;;;;;5004425;28;20243;-60
2021/12/18 07:44:12;;;;;;;24.03;14.10;;;6.60;99.90;;;;;;5003347;28;20541;-60
2021/12/18 07:46:39;;;;;;;22.20;12.47;;;6.70;99.90;;;;;;5005342;28;20193;-57
2021/12/18 07:49:06;;;;;;;22.80;11.63;;;6.60;99.90;;;;;;5001891;28;20456;-57
2021/12/18 07:51:32;;;;;;;20.17;11.80;;;6.70;99.90;;;;;;5000665;28;20448;-57
2021/12/18 07:53:58;;;;;;;20.70;12.50;;;6.80;99.90;;;;;;5004250;28;20491;-59
2021/12/18 07:56:24;;;;;;;23.33;13.47;;;6.70;99.90;;;;;;5004306;28;20522;-58
2021/12/18 07:58:51;;;;;;;22.10;12.07;;;6.60;99.90;;;;;;5004034;28;20464;-59
2021/12/18 08:01:17;;;;;;;24.57;11.23;;;6.50;99.90;;;;;;5001282;28;20451;-59
2021/12/18 08:03:42;;;;;;;18.90;10.53;;;6.30;99.90;;;;;;5003456;28;20598;-59
2021/12/18 08:06:08;;;;;;;19.03;11.30;;;6.40;99.90;;;;;;5004781;28;20197;-59
2021/12/18 08:08:34;;;;;;;17.43;10.63;;;6.60;99.90;;;;;;5003891;28;20193;-59
2021/12/18 08:11:00;;;;;;;21.10;12.20;;;6.60;99.90;;;;;;5003650;28;20211;-59
2021/12/18 08:13:25;;;;;;;20.30;11.73;;;6.70;99.90;;;;;;5003060;28;20460;-59
2021/12/18 08:15:51;;;;;;;20.07;11.90;;;6.70;99.90;;;;;;5004754;28;20212;-58
2021/12/18 08:18:18;;;;;;;17.53;10.57;;;6.90;99.90;;;;;;5002231;28;20204;-58
2021/12/18 08:20:44;;;;;;;17.57;10.83;;;6.80;99.90;;;;;;5003604;28;20670;-58
2021/12/18 08:23:09;;;;;;;14.87;9.73;;;6.80;99.90;;;;;;5005165;28;20452;-57
2021/12/18 08:25:35;;;;;;;19.00;11.90;;;6.70;99.90;;;;;;5003136;28;20444;-58
2021/12/18 08:28:03;;;;;;;21.00;12.10;;;6.60;99.90;;;;;;5001143;28;20642;-60
2021/12/18 08:30:30;;;;;;;21.23;12.63;;;6.80;99.90;;;;;;4998386;28;20451;-57
2021/12/18 08:32:58;;;;;;;19.27;11.83;;;6.70;99.90;;;;;;4998483;28;20470;-59
2021/12/18 08:35:28;;;;;;;18.63;10.43;;;6.80;99.90;;;;;;4998505;28;20502;-57
2021/12/18 08:37:54;;;;;;;17.60;10.43;;;6.70;99.90;;;;;;5002513;28;20809;-58
2021/12/18 08:40:20;;;;;;;17.00;10.60;;;6.60;99.90;;;;;;5002743;28;20845;-60
2021/12/18 08:42:46;;;;;;;17.87;10.47;;;6.60;99.90;;;;;;5001350;28;20467;-57
2021/12/18 08:45:12;;;;;;;20.87;11.87;;;6.70;99.90;;;;;;5001641;28;20275;-58
2021/12/18 08:47:38;;;;;;;19.87;13.77;;;6.60;99.90;;;;;;5005849;28;20189;-59
2021/12/18 08:50:06;;;;;;;17.43;10.60;;;6.40;99.90;;;;;;4996819;28;20448;-59
2021/12/18 08:52:32;;;;;;;21.23;11.43;;;6.60;99.90;;;;;;5003453;28;20443;-59
2021/12/18 08:54:58;;;;;;;19.73;10.90;;;6.70;99.90;;;;;;5002278;28;20437;-59
2021/12/18 08:57:24;;;;;;;19.70;12.10;;;6.70;99.90;;;;;;5000560;28;20474;-60
2021/12/18 08:59:50;;;;;;;17.90;10.40;;;6.70;99.90;;;;;;5004265;28;20428;-59
2021/12/18 09:02:15;;;;;;;23.10;11.93;;;6.80;99.90;;;;;;5003653;28;20686;-59
2021/12/18 09:04:41;;;;;;;19.43;11.40;;;6.80;99.90;;;;;;5000258;28;20201;-59
2021/12/18 09:07:08;;;;;;;21.03;10.00;;;6.80;99.90;;;;;;5002911;28;20861;-59
2021/12/18 09:09:33;;;;;;;19.00;11.00;;;6.70;99.90;;;;;;5001771;28;20608;-59
2021/12/18 09:11:59;;;;;;;19.23;11.30;;;6.60;99.90;;;;;;5001935;28;20436;-58
2021/12/18 09:14:25;;;;;;;18.87;11.10;;;6.80;99.90;;;;;;5002062;28;20284;-59
2021/12/18 09:16:52;;;;;;;19.50;11.20;;;7.00;99.90;;;;;;5003627;28;20263;-57
2021/12/18 09:19:18;;;;;;;17.53;10.03;;;7.10;99.90;;;;;;5001898;28;20276;-59
2021/12/18 09:21:43;;;;;;;22.70;11.90;;;7.10;99.90;;;;;;5000333;28;20503;-60
2021/12/18 09:24:09;;;;;;;20.90;11.87;;;7.10;99.90;;;;;;5003083;28;20213;-58
2021/12/18 09:26:35;;;;;;;20.50;11.30;;;7.00;99.90;;;;;;5000627;28;20193;-60
2021/12/18 09:29:01;;;;;;;22.70;11.70;;;6.60;99.90;;;;;;5003341;28;20428;-59
2021/12/18 09:31:27;;;;;;;25.50;11.30;;;6.60;99.90;;;;;;5002838;28;20183;-59
2021/12/18 09:33:52;;;;;;;23.07;13.33;;;6.80;99.90;;;;;;4999416;28;20289;-59
2021/12/18 09:36:19;;;;;;;20.27;12.40;;;6.90;99.90;;;;;;5001541;28;21156;-58
2021/12/18 09:38:45;;;;;;;22.50;11.60;;;7.10;99.90;;;;;;4996784;28;20178;-60
2021/12/18 09:41:10;;;;;;;18.67;10.37;;;7.10;99.90;;;;;;5000563;28;20439;-58
2021/12/18 09:43:37;;;;;;;19.10;10.53;;;7.20;99.90;;;;;;5002099;28;20213;-60
2021/12/18 09:46:09;;;;;;;20.77;12.13;;;7.20;99.90;;;;;;5000345;28;20675;-58
2021/12/18 09:48:39;;;;;;;17.90;10.90;;;7.00;99.90;;;;;;5000690;28;20450;-60
2021/12/18 09:51:11;;;;;;;20.50;10.77;;;7.20;99.90;;;;;;5000915;28;20431;-59
2021/12/18 09:53:37;;;;;;;18.43;11.40;;;7.20;99.90;;;;;;5000640;28;20459;-57
2021/12/18 09:56:04;;;;;;;22.53;12.63;;;7.30;99.90;;;;;;4998185;28;20514;-58
2021/12/18 09:58:31;;;;;;;19.53;12.70;;;7.10;99.90;;;;;;4998905;28;20439;-60
2021/12/18 10:00:57;;;;;;;18.90;11.40;;;7.00;99.90;;;;;;4998057;28;20440;-59
2021/12/18 10:03:46;;;;;;;17.90;11.20;;;7.10;99.90;;;;;;5000569;28;20487;-58
2021/12/18 10:06:40;;;;;;;19.70;10.50;;;7.20;99.90;;;;;;5001372;28;20431;-59
2021/12/18 10:09:25;;;;;;;16.50;10.20;;;7.20;99.90;;;;;;5001475;28;21079;-60
2021/12/18 10:11:57;;;;;;;17.73;10.63;;;7.20;99.90;;;;;;4981399;28;20452;-60
2021/12/18 10:14:38;;;;;;;22.97;11.67;;;7.20;99.90;;;;;;4995494;28;20996;-58
2021/12/18 10:17:16;;;;;;;16.63;10.97;;;7.10;99.90;;;;;;4997000;28;20460;-57
2021/12/18 10:19:42;;;;;;;24.20;12.60;;;7.00;99.90;;;;;;4998002;28;20436;-58
2021/12/18 10:22:09;;;;;;;17.97;10.90;;;7.00;99.90;;;;;;4997137;28;20502;-58
2021/12/18 10:24:39;;;;;;;19.87;11.10;;;7.10;99.90;;;;;;4996207;28;20243;-56
2021/12/18 10:27:23;;;;;;;19.30;12.00;;;7.10;99.90;;;;;;4996767;28;20589;-57
2021/12/18 10:29:52;;;;;;;17.00;11.07;;;7.00;99.90;;;;;;4996394;28;20474;-57
2021/12/18 10:32:20;;;;;;;20.63;11.40;;;7.10;99.90;;;;;;4999149;28;20439;-58
2021/12/18 10:34:53;;;;;;;21.40;11.93;;;7.20;99.90;;;;;;4998559;28;20879;-57
2021/12/18 10:37:24;;;;;;;17.07;11.70;;;7.20;99.90;;;;;;5000299;28;20475;-58
2021/12/18 10:39:50;;;;;;;21.63;11.63;;;7.20;99.90;;;;;;4997622;28;20463;-58
2021/12/18 10:42:34;;;;;;;20.20;11.83;;;7.30;99.90;;;;;;5000629;28;20549;-61
2021/12/18 10:45:15;;;;;;;19.83;11.53;;;7.40;99.90;;;;;;5000234;28;20197;-60
2021/12/18 10:47:49;;;;;;;23.53;12.20;;;7.30;99.90;;;;;;5003418;28;20577;-59
2021/12/18 10:50:16;;;;;;;21.40;12.97;;;7.30;99.90;;;;;;4998689;28;20466;-59
2021/12/18 10:52:42;;;;;;;23.47;12.53;;;7.40;99.90;;;;;;5003758;28;20486;-60
2021/12/18 10:55:08;;;;;;;22.60;13.10;;;7.40;99.90;;;;;;5001141;28;20436;-57
2021/12/18 10:57:33;;;;;;;22.00;12.33;;;7.40;99.90;;;;;;4998836;28;20628;-58
2021/12/18 10:59:59;;;;;;;19.20;11.60;;;7.30;99.90;;;;;;5003278;28;20432;-59
2021/12/18 11:02:27;;;;;;;19.53;11.90;;;7.40;99.90;;;;;;5003917;28;20193;-58
2021/12/18 11:05:11;;;;;;;24.40;13.10;;;7.50;99.90;;;;;;4998992;28;20194;-56
2021/12/18 11:07:42;;;;;;;20.03;12.77;;;7.50;99.90;;;;;;4997427;28;20440;-59
2021/12/18 11:10:54;;;;;;;25.23;12.10;;;7.60;99.90;;;;;;5012532;28;20541;-54
2021/12/18 11:24:06;;;;;;;23.60;12.87;;;7.40;99.90;;;;;;4976054;28;21049;-58
2021/12/18 11:26:57;;;;;;;25.53;12.40;;;7.40;99.90;;;;;;4997461;28;20636;-58
2021/12/18 11:30:01;;;;;;;22.03;11.00;;;7.40;99.90;;;;;;4995061;28;20840;-59
2021/12/18 11:32:35;;;;;;;19.70;12.80;;;7.30;99.90;;;;;;4995807;28;20534;-60
2021/12/18 11:49:08;;;;;;;21.30;11.47;;;7.50;99.90;;;;;;5002349;28;20573;-58
2021/12/18 11:54:49;;;;;;;18.70;11.00;;;7.50;99.90;;;;;;5910691;23;20402;-60
2021/12/18 11:57:49;;;;;;;20.00;11.23;;;7.50;99.90;;;;;;4878279;29;20623;-61
2021/12/18 12:00:18;;;;;;;18.77;11.30;;;7.50;99.90;;;;;;4885153;29;20494;-61
2021/12/18 12:02:50;;;;;;;19.90;12.53;;;7.50;99.90;;;;;;4943470;28;21003;-59
2021/12/18 12:05:30;;;;;;;18.57;11.43;;;7.60;99.90;;;;;;4954785;28;20688;-61
2021/12/18 12:08:17;;;;;;;20.33;12.40;;;7.50;99.90;;;;;;4955819;28;20450;-59
2021/12/18 12:11:18;;;;;;;18.27;11.33;;;7.70;99.90;;;;;;4956932;28;20552;-61
2021/12/18 12:14:06;;;;;;;16.50;11.07;;;7.70;99.90;;;;;;4958229;28;20456;-60
2021/12/18 12:16:44;;;;;;;23.33;11.50;;;7.70;99.90;;;;;;4951044;28;20477;-61
2021/12/18 12:19:11;;;;;;;18.40;11.57;;;7.70;99.90;;;;;;4959050;28;21399;-61
2021/12/18 12:21:41;;;;;;;20.50;11.10;;;7.80;99.90;;;;;;4957826;28;21021;-61
2021/12/18 12:24:08;;;;;;;17.00;11.53;;;7.70;99.90;;;;;;4959415;28;20438;-61
2021/12/18 12:26:35;;;;;;;19.03;12.20;;;7.60;99.90;;;;;;4959415;28;20544;-60
2021/12/18 12:29:00;;;;;;;20.73;11.53;;;7.60;99.90;;;;;;4940610;28;20482;-60
2021/12/18 12:31:27;;;;;;;19.40;11.63;;;7.70;99.90;;;;;;4960978;28;20971;-62
2021/12/18 12:34:33;;;;;;;19.53;10.83;;;7.60;99.90;;;;;;4961498;28;20201;-60
2021/12/18 12:37:27;;;;;;;16.63;10.33;;;7.60;99.90;;;;;;4961099;28;20905;-63
2021/12/18 12:40:05;;;;;;;15.30;9.23;;;7.60;99.90;;;;;;4964479;28;20429;-63
2021/12/18 12:42:31;;;;;;;16.30;9.80;;;7.80;99.90;;;;;;4961854;28;20499;-62
2021/12/18 12:45:07;;;;;;;15.77;8.97;;;7.80;99.90;;;;;;4961316;28;20496;-62
2021/12/18 12:47:33;;;;;;;18.30;10.93;;;7.60;99.90;;;;;;4955024;28;20430;-61
2021/12/18 12:50:02;;;;;;;15.87;10.10;;;7.70;99.90;;;;;;4941450;28;20445;-62
2021/12/18 12:52:30;;;;;;;15.70;10.30;;;7.70;99.90;;;;;;4957790;28;20653;-62
2021/12/18 12:55:16;;;;;;;16.70;9.70;;;7.60;99.90;;;;;;4957444;28;20457;-61
2021/12/18 12:57:45;;;;;;;16.97;10.73;;;7.60;99.90;;;;;;4957950;28;20883;-61
2021/12/18 13:00:10;;;;;;;17.70;11.07;;;7.80;99.90;;;;;;4955143;28;20525;-62
2021/12/18 13:02:54;;;;;;;19.27;10.70;;;7.80;99.90;;;;;;4956292;28;20604;-62
2021/12/18 13:05:20;;;;;;;17.50;10.33;;;7.70;99.90;;;;;;4953023;28;20279;-62
2021/12/18 13:07:49;;;;;;;17.90;10.70;;;7.70;99.90;;;;;;4954003;28;20515;-62
2021/12/18 13:10:23;;;;;;;18.30;10.97;;;7.70;99.90;;;;;;4944679;28;20443;-62
2021/12/18 13:12:52;;;;;;;17.83;10.60;;;7.60;99.90;;;;;;4957572;28;20448;-62
2021/12/18 13:15:18;;;;;;;16.90;11.30;;;7.50;99.90;;;;;;4939840;28;20473;-62
2021/12/18 13:17:44;;;;;;;18.07;10.90;;;7.40;99.90;;;;;;4957764;28;20466;-60
2021/12/18 13:20:10;;;;;;;17.43;10.10;;;7.30;99.90;;;;;;4945243;28;20783;-60
2021/12/18 13:22:36;;;;;;;14.80;9.50;;;7.40;99.90;;;;;;4957935;28;20253;-60
2021/12/18 13:25:06;;;;;;;16.83;9.40;;;7.40;99.90;;;;;;4957928;28;20461;-60
2021/12/18 13:27:33;;;;;;;13.57;8.67;;;7.30;99.90;;;;;;4956200;28;20270;-60
2021/12/18 13:30:21;;;;;;;16.03;9.07;;;7.30;99.90;;;;;;4958686;28;20572;-60
2021/12/18 13:32:59;;;;;;;14.73;9.37;;;7.40;99.90;;;;;;4956967;28;20454;-61
2021/12/18 13:35:27;;;;;;;14.33;8.90;;;7.40;99.90;;;;;;4957742;28;20538;-61
2021/12/18 13:38:01;;;;;;;11.90;8.40;;;7.50;99.90;;;;;;4959120;28;20465;-62
2021/12/18 13:40:29;;;;;;;17.20;9.20;;;7.50;99.90;;;;;;4954057;28;20449;-62
2021/12/18 13:43:09;;;;;;;11.40;7.90;;;7.50;99.90;;;;;;4957869;28;20548;-62
2021/12/18 13:45:58;;;;;;;13.50;9.97;;;7.30;99.90;;;;;;4959957;28;20870;-60
2021/12/18 13:48:26;;;;;;;13.23;8.70;;;7.40;99.90;;;;;;4959075;28;20469;-60
2021/12/18 13:51:11;;;;;;;11.67;7.90;;;7.20;99.90;;;;;;4958134;28;20480;-60
2021/12/18 13:53:59;;;;;;;12.40;8.53;;;7.20;99.90;;;;;;4954179;28;20545;-60
2021/12/18 13:56:31;;;;;;;11.70;8.23;;;7.20;99.90;;;;;;4956513;28;20485;-60
2021/12/18 13:58:58;;;;;;;15.50;8.90;;;7.30;99.90;;;;;;4957278;28;20438;-60